Time;durP1;ratioP1;P1;durP2;ratioP2;P2;SDS_P1;SDS_P2;PMS_P1;PMS_P2;Temp;Humidity;BMP_temperature;BMP_pressure;BME280_temperature;BME280_humidity;BME280_pressure;Samples;Min_cycle;Max_cycle;Signal;HPM_P1;HPM_P2
2022/06/11 00:00:16;;;;;;;10.23;5.75;;;;;;;16.17;88.80;102028.94;4970292;28;20475;-77
2022/06/11 00:02:42;;;;;;;8.65;5.60;;;;;;;16.15;88.99;102022.91;4970983;28;20039;-77
2022/06/11 00:05:08;;;;;;;12.13;5.53;;;;;;;16.11;89.17;102021.47;4958628;28;20090;-77
2022/06/11 00:07:34;;;;;;;10.52;6.03;;;;;;;16.09;89.10;102019.91;4950392;28;20042;-77
2022/06/11 00:09:59;;;;;;;7.88;5.18;;;;;;;16.05;89.44;102027.25;4949898;28;20054;-77
2022/06/11 00:12:26;;;;;;;10.85;5.72;;;;;;;16.03;89.23;102018.56;4949560;29;20081;-77
2022/06/11 00:14:53;;;;;;;7.20;5.20;;;;;;;16.00;89.26;102029.41;4950217;28;20026;-77
2022/06/11 00:17:21;;;;;;;8.77;5.25;;;;;;;15.99;89.28;102027.72;4952910;28;20031;-77
2022/06/11 00:19:46;;;;;;;8.00;5.30;;;;;;;15.95;89.51;102032.41;4969806;28;20042;-76
2022/06/11 00:22:13;;;;;;;8.57;5.38;;;;;;;15.96;89.38;102027.97;4969984;28;20081;-77
2022/06/11 00:24:39;;;;;;;8.80;4.93;;;;;;;15.94;89.57;102027.22;4969913;28;20386;-77
2022/06/11 00:27:06;;;;;;;8.63;5.13;;;;;;;15.88;89.72;102022.41;4970612;28;20039;-77
2022/06/11 00:29:33;;;;;;;8.02;5.22;;;;;;;15.87;89.82;102023.38;4984061;28;20065;-77
2022/06/11 00:31:58;;;;;;;7.22;5.30;;;;;;;15.86;90.09;102027.84;4969882;28;20033;-77
2022/06/11 00:34:25;;;;;;;6.03;4.57;;;;;;;15.83;89.91;102028.06;4968867;28;20431;-76
2022/06/11 00:36:51;;;;;;;9.02;5.28;;;;;;;15.76;90.00;102028.66;4967686;28;20023;-76
2022/06/11 00:39:20;;;;;;;8.32;5.47;;;;;;;15.74;90.03;102017.34;4970011;28;20482;-76
2022/06/11 00:41:50;;;;;;;6.07;5.18;;;;;;;15.72;90.23;102024.56;4968981;28;20684;-77
2022/06/11 00:44:16;;;;;;;9.68;5.47;;;;;;;15.74;90.29;102019.97;4968047;28;20030;-76
2022/06/11 00:47:23;;;;;;;6.70;5.03;;;;;;;15.75;89.50;102019.03;4969324;28;20474;-76
2022/06/11 00:49:55;;;;;;;9.25;5.47;;;;;;;15.68;89.86;102023.13;4969328;28;20795;-76
2022/06/11 00:52:41;;;;;;;;;;;;;;;15.77;87.69;102017.09;4970184;28;20389;-77
2022/06/11 00:55:15;;;;;;;8.68;5.30;;;;;;;15.64;90.27;102012.75;4969852;28;19960;-77
2022/06/11 00:57:48;;;;;;;9.13;5.13;;;;;;;15.64;90.18;102017.19;4969985;28;20027;-77
2022/06/11 01:00:28;;;;;;;8.77;5.45;;;;;;;15.60;90.05;102013.91;4969604;28;20039;-77
2022/06/11 01:02:54;;;;;;;8.25;5.72;;;;;;;15.56;90.71;102014.22;4985621;28;20035;-77
2022/06/11 01:05:26;;;;;;;8.75;5.35;;;;;;;15.55;90.69;102018.69;4957298;28;20035;-77
2022/06/11 01:07:51;;;;;;;6.50;5.53;;;;;;;15.57;90.64;102005.31;4950851;28;20109;-77
2022/06/11 01:10:37;;;;;;;9.05;5.47;;;;;;;15.54;90.66;102011.69;4951040;28;20106;-77
2022/06/11 01:13:31;;;;;;;7.88;5.05;;;;;;;15.50;90.96;102010.25;4950320;28;20038;-77
2022/06/11 01:16:02;;;;;;;8.93;5.47;;;;;;;15.50;91.27;102007.59;4949258;29;20051;-79
2022/06/11 01:19:13;;;;;;;7.85;5.85;;;;;;;15.50;90.59;102002.28;4960693;28;20086;-79
2022/06/11 01:21:56;;;;;;;10.57;6.82;;;;;;;15.44;91.36;102002.75;4969360;28;20050;-79
2022/06/11 01:24:24;;;;;;;;;;;;;;;15.53;88.84;102010.00;4970118;28;20027;-79
2022/06/11 01:27:07;;;;;;;8.48;6.30;;;;;;;15.45;90.92;102012.41;4968588;28;19941;-79
2022/06/11 01:29:57;;;;;;;7.95;6.93;;;;;;;15.43;91.22;102010.81;4967942;28;20019;-79
2022/06/11 01:32:32;;;;;;;11.13;6.40;;;;;;;15.38;91.75;102005.88;4967544;28;20038;-79
2022/06/11 01:35:18;;;;;;;10.50;6.60;;;;;;;15.37;91.75;102014.78;4968447;28;20031;-79
2022/06/11 01:37:52;;;;;;;11.55;7.00;;;;;;;15.31;92.49;102015.25;4983778;28;20489;-79
2022/06/11 01:40:31;;;;;;;11.02;6.78;;;;;;;15.31;92.43;101999.34;4969109;28;20031;-79
2022/06/11 01:43:04;;;;;;;12.65;7.13;;;;;;;15.29;92.72;102006.56;4969548;28;20027;-79
2022/06/11 01:45:36;;;;;;;12.20;7.05;;;;;;;15.28;92.60;102004.88;4972916;28;20018;-79
2022/06/11 01:48:04;;;;;;;9.68;7.00;;;;;;;15.25;92.80;102005.13;4989131;28;20114;-76
2022/06/11 01:50:34;;;;;;;9.02;6.35;;;;;;;15.25;92.70;102002.47;4988676;28;20027;-76
2022/06/11 01:53:31;;;;;;;9.68;6.70;;;;;;;15.23;92.90;102002.59;4972605;28;20503;-76
2022/06/11 01:56:36;;;;;;;12.00;6.50;;;;;;;15.21;93.00;101998.31;4971706;28;20125;-76
2022/06/11 01:59:27;;;;;;;10.23;6.75;;;;;;;15.20;92.88;101996.63;4968529;28;20129;-77
2022/06/11 02:02:01;;;;;;;10.65;6.90;;;;;;;15.17;93.13;101997.72;4952511;28;20264;-77
2022/06/11 02:05:00;;;;;;;9.45;6.68;;;;;;;15.13;93.08;101995.41;4958850;28;20054;-77
2022/06/11 02:07:46;;;;;;;9.35;6.57;;;;;;;15.14;92.98;102002.41;4971776;28;20027;-77
2022/06/11 02:10:20;;;;;;;9.70;6.55;;;;;;;15.10;93.71;101995.66;4988423;28;20145;-77
2022/06/11 02:12:58;;;;;;;9.00;6.78;;;;;;;15.09;93.77;101993.94;4955625;28;20106;-77
2022/06/11 02:15:49;;;;;;;8.32;6.53;;;;;;;15.05;93.70;101999.47;4952731;29;20035;-77
2022/06/11 02:18:18;;;;;;;8.23;6.03;;;;;;;15.04;93.12;101995.16;4960672;28;20027;-77
2022/06/11 02:20:54;;;;;;;9.00;5.90;;;;;;;15.03;93.24;102000.56;4971889;28;20555;-77
2022/06/11 02:23:54;;;;;;;7.50;5.65;;;;;;;15.04;92.60;102005.75;4971931;28;20030;-77
2022/06/11 02:26:27;;;;;;;7.72;5.53;;;;;;;14.98;93.25;102008.00;4972153;28;20038;-77
2022/06/11 02:28:55;;;;;;;7.97;6.10;;;;;;;14.93;93.33;102011.00;4971121;28;20096;-77
2022/06/11 02:31:24;;;;;;;8.65;5.65;;;;;;;14.92;93.31;102013.78;4987112;28;20077;-77
2022/06/11 02:33:51;;;;;;;7.88;5.70;;;;;;;14.88;93.74;102018.44;4971594;28;20053;-76
2022/06/11 02:36:22;;;;;;;8.63;5.93;;;;;;;14.84;94.01;102021.44;4986382;28;20019;-77
2022/06/11 02:38:48;;;;;;;6.90;5.20;;;;;;;14.83;93.88;102020.59;4986332;28;20118;-77
2022/06/11 02:41:19;;;;;;;10.43;5.70;;;;;;;14.81;93.73;102019.84;4971713;28;20101;-77
2022/06/11 02:43:45;;;;;;;7.03;5.38;;;;;;;14.80;93.52;102022.59;4985595;28;20026;-77
2022/06/11 02:48:55;;;;;;;5.93;4.53;;;;;;;14.79;93.45;102023.56;4972212;28;20046;-76
2022/06/11 02:51:22;;;;;;;7.55;5.00;;;;;;;14.76;93.51;102024.63;4970120;28;20018;-76
2022/06/11 02:53:48;;;;;;;6.43;5.03;;;;;;;14.75;93.92;102020.28;4971132;28;20026;-76
2022/06/11 02:56:13;;;;;;;7.45;4.93;;;;;;;14.72;93.73;102029.31;4970711;28;20527;-77
2022/06/11 02:58:40;;;;;;;5.28;4.68;;;;;;;14.71;93.69;102027.59;4970969;28;20091;-76
2022/06/11 03:01:06;;;;;;;9.38;5.43;;;;;;;14.66;93.93;102026.25;4971724;28;20400;-76
2022/06/11 03:03:31;;;;;;;8.55;4.78;;;;;;;14.67;93.79;102035.91;4971645;28;20108;-77
2022/06/11 03:05:58;;;;;;;9.07;5.18;;;;;;;14.64;94.03;102030.81;4954913;28;20532;-76
2022/06/11 03:08:23;;;;;;;7.32;4.90;;;;;;;14.64;94.34;102026.38;4952980;28;20047;-77
2022/06/11 03:10:54;;;;;;;6.97;4.65;;;;;;;14.65;94.69;102043.09;4952142;28;20125;-77
2022/06/11 03:13:23;;;;;;;5.75;4.72;;;;;;;14.65;94.86;102035.16;4934251;29;20030;-77
2022/06/11 03:15:49;;;;;;;8.02;5.28;;;;;;;14.69;95.22;102034.81;4933820;29;20036;-77
2022/06/11 03:18:15;;;;;;;7.07;5.47;;;;;;;14.72;95.08;102044.34;4951633;28;20079;-76
2022/06/11 03:20:41;;;;;;;7.78;5.10;;;;;;;14.73;95.30;102044.25;4972171;28;20026;-77
2022/06/11 03:23:07;;;;;;;7.30;5.30;;;;;;;14.77;95.28;102042.22;4972712;28;20027;-77
2022/06/11 03:25:32;;;;;;;8.30;5.35;;;;;;;14.79;95.11;102039.44;4971407;28;20018;-77
2022/06/11 03:27:58;;;;;;;7.55;4.95;;;;;;;14.81;95.55;102051.66;4969805;28;20030;-77
2022/06/11 03:30:23;;;;;;;8.57;5.40;;;;;;;14.82;94.85;102050.69;4986051;28;20046;-77
2022/06/11 03:32:49;;;;;;;5.80;4.60;;;;;;;14.86;95.34;102051.31;4969931;28;20117;-77
2022/06/11 03:35:15;;;;;;;7.70;5.47;;;;;;;14.84;95.20;102048.78;4971173;28;20102;-77
2022/06/11 03:37:41;;;;;;;8.13;5.28;;;;;;;14.86;95.37;102052.16;4969041;28;20426;-77
2022/06/11 03:40:07;;;;;;;7.82;5.15;;;;;;;14.89;95.20;102057.25;4985084;28;20069;-77
2022/06/11 03:42:33;;;;;;;8.60;5.57;;;;;;;14.91;95.36;102059.78;4985203;28;20041;-77
2022/06/11 03:44:59;;;;;;;6.63;5.20;;;;;;;14.93;95.33;102064.00;4971106;28;20031;-77
2022/06/11 03:47:24;;;;;;;7.47;5.07;;;;;;;14.94;95.29;102067.50;4984993;28;20499;-77
2022/06/11 03:49:50;;;;;;;5.90;5.00;;;;;;;15.00;95.21;102072.34;4970317;28;20030;-77
2022/06/11 03:52:16;;;;;;;5.72;4.80;;;;;;;15.00;95.03;102070.53;4969549;28;20019;-77
2022/06/11 03:54:42;;;;;;;8.88;5.00;;;;;;;15.02;95.17;102073.09;4969921;28;20027;-76
2022/06/11 03:57:08;;;;;;;7.20;5.03;;;;;;;15.03;94.81;102075.63;4969730;28;20556;-76
2022/06/11 03:59:33;;;;;;;6.28;4.78;;;;;;;15.08;94.92;102083.22;4969543;28;20089;-77
2022/06/11 04:01:59;;;;;;;7.15;4.75;;;;;;;15.11;94.76;102082.16;4953786;28;20058;-77
2022/06/11 04:04:24;;;;;;;7.55;4.78;;;;;;;15.14;94.52;102085.44;4969251;28;20034;-77
2022/06/11 04:06:57;;;;;;;8.02;4.80;;;;;;;15.14;94.53;102088.09;4966304;28;20066;-77
2022/06/11 04:09:35;;;;;;;8.57;5.03;;;;;;;15.17;94.31;102087.84;4969135;28;20051;-77
2022/06/11 04:12:03;;;;;;;6.47;4.32;;;;;;;15.21;94.55;102093.78;4962182;28;20043;-77
2022/06/11 04:14:29;;;;;;;5.68;4.60;;;;;;;15.22;94.06;102091.03;4949690;29;20023;-77
2022/06/11 04:16:58;;;;;;;6.15;4.45;;;;;;;15.24;94.38;102097.06;4951050;29;20045;-77
2022/06/11 04:19:30;;;;;;;6.30;4.30;;;;;;;15.28;94.38;102103.00;4951935;29;20034;-77
2022/06/11 04:21:57;;;;;;;6.30;4.43;;;;;;;15.31;93.78;102100.13;4950543;29;20175;-77
2022/06/11 04:24:24;;;;;;;7.20;4.50;;;;;;;15.32;93.88;102101.81;4952123;29;20031;-77
2022/06/11 04:26:53;;;;;;;8.18;4.30;;;;;;;15.35;93.60;102107.72;4951785;28;20031;-77
2022/06/11 04:29:22;;;;;;;6.35;4.05;;;;;;;15.37;93.92;102110.28;4951453;29;20030;-77
2022/06/11 04:31:51;;;;;;;7.15;4.38;;;;;;;15.42;93.97;102116.06;4951589;28;20081;-77
2022/06/11 04:34:17;;;;;;;5.03;3.90;;;;;;;15.41;93.86;102111.72;4950629;29;20031;-77
2022/06/11 04:36:45;;;;;;;9.60;4.55;;;;;;;15.43;93.39;102114.28;4950840;29;20039;-77
2022/06/11 04:39:13;;;;;;;7.57;4.30;;;;;;;15.45;93.45;102113.19;4951687;29;20106;-77
2022/06/11 04:41:38;;;;;;;8.63;4.45;;;;;;;15.48;93.29;102112.97;4951074;29;20098;-77
2022/06/11 04:44:05;;;;;;;7.55;4.90;;;;;;;15.52;92.42;102114.44;4950774;29;20122;-77
2022/06/11 04:46:31;;;;;;;8.00;4.38;;;;;;;15.51;92.50;102111.88;4951342;29;20027;-77
2022/06/11 04:48:56;;;;;;;9.45;4.75;;;;;;;15.56;92.27;102125.66;4950068;29;20019;-77
2022/06/11 04:51:22;;;;;;;9.23;4.68;;;;;;;15.57;91.86;102117.56;4951998;29;20019;-77
2022/06/11 04:53:48;;;;;;;8.23;4.53;;;;;;;15.59;91.20;102117.50;4949571;29;20518;-77
2022/06/11 04:56:17;;;;;;;7.65;4.30;;;;;;;15.63;90.95;102117.19;4951512;28;20078;-77
2022/06/11 04:58:44;;;;;;;7.05;4.28;;;;;;;15.66;90.67;102114.28;4950495;29;20035;-79
2022/06/11 05:01:10;;;;;;;9.43;4.30;;;;;;;15.66;89.99;102114.28;4950714;29;20093;-77
2022/06/11 05:03:35;;;;;;;9.32;4.72;;;;;;;15.74;90.07;102112.88;4949402;29;20508;-77
2022/06/11 05:06:01;;;;;;;6.65;4.43;;;;;;;15.76;88.38;102116.25;4969202;28;20018;-77
2022/06/11 05:08:26;;;;;;;8.38;4.15;;;;;;;15.78;88.35;102114.31;4967853;28;20141;-77
2022/06/11 05:10:52;;;;;;;9.50;4.47;;;;;;;15.82;87.83;102126.38;4968800;28;20027;-77
2022/06/11 05:13:17;;;;;;;7.57;4.50;;;;;;;15.86;87.40;102123.38;4950709;28;20051;-77
2022/06/11 05:15:45;;;;;;;8.02;4.25;;;;;;;15.87;87.02;102116.28;4948366;29;20027;-77
2022/06/11 05:18:13;;;;;;;6.90;4.20;;;;;;;15.88;87.29;102115.31;4962061;28;20362;-77
2022/06/11 05:20:39;;;;;;;9.00;4.35;;;;;;;15.90;85.63;102122.19;4971557;28;20023;-77
2022/06/11 05:23:05;;;;;;;7.78;4.20;;;;;;;15.93;84.94;102119.28;4973860;28;20026;-77
2022/06/11 05:25:32;;;;;;;8.75;3.90;;;;;;;15.97;83.64;102117.25;4972457;28;20054;-77
2022/06/11 05:27:57;;;;;;;10.70;4.35;;;;;;;15.98;83.02;102124.25;4972382;28;20448;-77
2022/06/11 05:30:27;;;;;;;9.60;3.85;;;;;;;16.01;81.60;102126.69;4973364;28;20065;-77
2022/06/11 05:32:53;;;;;;;9.50;3.50;;;;;;;16.06;80.89;102118.38;4987303;28;20117;-77
2022/06/11 05:35:21;;;;;;;9.07;3.17;;;;;;;16.12;79.73;102124.06;4973521;28;20106;-77
2022/06/11 05:37:49;;;;;;;13.35;3.83;;;;;;;16.18;79.17;102123.59;4971021;28;20038;-77
2022/06/11 05:40:17;;;;;;;6.15;2.97;;;;;;;16.24;78.36;102127.56;4971339;28;20039;-77
2022/06/11 05:42:47;;;;;;;10.05;3.38;;;;;;;16.27;77.45;102130.84;4972716;28;20037;-77
2022/06/11 05:45:17;;;;;;;10.60;3.42;;;;;;;16.30;76.21;102133.25;4972710;28;20592;-77
2022/06/11 05:47:44;;;;;;;10.13;2.90;;;;;;;16.35;75.55;102132.88;4971471;28;20026;-77
2022/06/11 05:50:13;;;;;;;10.30;3.03;;;;;;;16.40;76.18;102127.22;4971873;28;20026;-77
2022/06/11 05:52:43;;;;;;;8.85;3.05;;;;;;;16.44;76.41;102129.53;4971934;28;20482;-77
2022/06/11 05:55:09;;;;;;;11.43;2.95;;;;;;;16.45;73.63;102133.03;4973126;28;20031;-77
2022/06/11 05:57:35;;;;;;;9.80;3.13;;;;;;;16.53;74.69;102143.91;4972593;28;20445;-77
2022/06/11 06:00:07;;;;;;;10.55;3.22;;;;;;;16.53;72.83;102139.44;4972311;28;20070;-77
2022/06/11 06:02:32;;;;;;;10.40;3.28;;;;;;;16.59;74.41;102138.09;4971398;28;20501;-77
2022/06/11 06:04:58;;;;;;;11.70;2.63;;;;;;;16.66;73.27;102134.03;4963787;28;20114;-77
2022/06/11 06:07:23;;;;;;;14.50;3.17;;;;;;;16.67;71.33;102135.72;4953657;28;20023;-77
2022/06/11 06:09:49;;;;;;;10.63;2.40;;;;;;;16.73;71.31;102137.88;4952440;28;20082;-77
2022/06/11 06:12:16;;;;;;;18.50;3.45;;;;;;;16.77;72.58;102130.50;4954754;28;20035;-77
2022/06/11 06:14:42;;;;;;;11.43;2.78;;;;;;;16.82;71.70;102137.19;4953106;28;20069;-78
2022/06/11 06:17:07;;;;;;;10.15;2.88;;;;;;;16.84;71.88;102137.91;4954728;28;20031;-77
2022/06/11 06:19:33;;;;;;;15.27;3.15;;;;;;;16.85;70.91;102142.25;4971419;28;20436;-77
2022/06/11 06:22:01;;;;;;;11.68;3.30;;;;;;;16.82;71.58;102139.84;4973190;28;20030;-77
2022/06/11 06:24:26;;;;;;;14.55;3.30;;;;;;;16.87;70.55;102148.28;4973379;28;20019;-77
2022/06/11 06:26:52;;;;;;;13.30;3.25;;;;;;;16.92;70.59;102148.75;4971695;28;20491;-77
2022/06/11 06:29:17;;;;;;;12.05;3.25;;;;;;;17.01;70.62;102155.16;4972365;28;20086;-77
2022/06/11 06:31:42;;;;;;;16.38;3.63;;;;;;;17.12;70.87;102154.28;4972748;28;20057;-78
2022/06/11 06:34:08;;;;;;;11.40;3.20;;;;;;;17.21;70.56;102154.41;4973452;28;20034;-78
2022/06/11 06:36:33;;;;;;;12.23;3.20;;;;;;;17.33;70.94;102152.56;4972160;28;20038;-77
2022/06/11 06:38:59;;;;;;;16.23;4.25;;;;;;;17.34;69.08;102151.59;4971356;28;20428;-77
2022/06/11 06:41:25;;;;;;;16.10;3.63;;;;;;;17.39;69.74;102157.38;4971678;28;20511;-77
2022/06/11 06:43:51;;;;;;;14.43;3.15;;;;;;;17.43;69.62;102161.47;4986467;28;20019;-78
2022/06/11 06:46:17;;;;;;;16.45;3.47;;;;;;;17.44;69.84;102159.66;4972134;28;20519;-77
2022/06/11 06:48:43;;;;;;;14.63;3.38;;;;;;;17.45;70.37;102162.19;4971013;28;20507;-77
2022/06/11 06:51:09;;;;;;;16.73;3.70;;;;;;;17.49;69.49;102166.28;4971976;28;20022;-77
2022/06/11 06:53:40;;;;;;;15.00;3.67;;;;;;;17.48;70.46;102172.56;4986514;28;20026;-77
2022/06/11 06:56:06;;;;;;;14.98;3.30;;;;;;;17.39;70.49;102162.69;4971439;28;20033;-77
2022/06/11 06:58:31;;;;;;;15.38;3.92;;;;;;;17.42;69.52;102157.13;4970119;28;20110;-77
2022/06/11 07:00:57;;;;;;;16.55;4.25;;;;;;;17.48;68.44;102159.25;4971671;28;20118;-78
2022/06/11 07:03:22;;;;;;;17.38;3.83;;;;;;;17.50;69.22;102159.13;4971495;28;20035;-78
2022/06/11 07:05:51;;;;;;;18.58;4.07;;;;;;;17.64;68.85;102152.69;4954062;28;20908;-79
2022/06/11 07:08:17;;;;;;;18.13;3.72;;;;;;;17.89;68.19;102163.00;4967223;28;20056;-79
2022/06/11 07:10:49;;;;;;;20.65;4.20;;;;;;;18.13;66.58;102150.28;4949831;28;20082;-78
2022/06/11 07:13:15;;;;;;;18.70;3.92;;;;;;;18.32;66.74;102154.03;4952457;28;20541;-79
2022/06/11 07:15:43;;;;;;;19.25;4.15;;;;;;;18.44;67.75;102147.66;4951839;28;20397;-79
2022/06/11 07:18:16;;;;;;;16.02;3.85;;;;;;;18.57;66.85;102158.94;4960072;28;20030;-78
2022/06/11 07:20:42;;;;;;;24.17;4.40;;;;;;;18.60;65.78;102158.66;4969432;28;20033;-79
2022/06/11 07:23:20;;;;;;;15.60;4.13;;;;;;;18.88;66.23;102156.28;4970336;28;20023;-78
2022/06/11 07:25:49;;;;;;;16.73;3.88;;;;;;;19.27;65.18;102158.09;4970179;28;20023;-79
2022/06/11 07:28:20;;;;;;;19.95;4.32;;;;;;;19.43;65.06;102154.84;4971562;28;20019;-78
2022/06/11 07:30:45;;;;;;;16.13;4.15;;;;;;;19.57;63.39;102156.28;4969733;28;20081;-79
2022/06/11 07:33:15;;;;;;;18.90;4.03;;;;;;;19.76;62.30;102159.00;4971027;28;20026;-79
2022/06/11 07:35:41;;;;;;;16.08;3.95;;;;;;;19.80;62.16;102164.88;4971378;28;20045;-79
2022/06/11 07:38:11;;;;;;;18.00;3.80;;;;;;;19.62;63.70;102167.44;4971867;28;20030;-79
2022/06/11 07:40:36;;;;;;;19.30;4.63;;;;;;;19.48;63.10;102170.47;4970424;28;20030;-78
2022/06/11 07:43:01;;;;;;;15.38;3.88;;;;;;;19.56;63.76;102176.81;4972545;28;20492;-78
2022/06/11 07:45:27;;;;;;;15.77;3.72;;;;;;;19.44;62.36;102169.91;4971596;28;20389;-78
2022/06/11 07:47:55;;;;;;;15.00;3.92;;;;;;;19.46;63.56;102167.94;4970088;28;20114;-78
2022/06/11 07:50:36;;;;;;;18.70;4.40;;;;;;;19.65;63.15;102159.13;4971962;28;20027;-78
2022/06/11 07:53:03;;;;;;;22.65;4.65;;;;;;;19.73;61.89;102164.59;4970499;28;20077;-79
2022/06/11 07:55:30;;;;;;;15.70;3.80;;;;;;;19.64;63.19;102155.63;4972119;28;20039;-78
2022/06/11 07:57:56;;;;;;;18.83;3.47;;;;;;;19.65;62.70;102156.47;4971854;28;20035;-78
2022/06/11 08:00:27;;;;;;;18.20;5.05;;;;;;;19.78;61.82;102159.69;4971305;28;20057;-79
2022/06/11 08:02:52;;;;;;;18.98;3.97;;;;;;;19.91;60.92;102162.91;4985940;28;20030;-79
2022/06/11 08:05:19;;;;;;;16.27;3.90;;;;;;;19.84;62.67;102172.47;4958686;28;20054;-78
2022/06/11 08:07:45;;;;;;;16.52;4.15;;;;;;;20.06;62.17;102167.81;4965962;28;20027;-78
2022/06/11 08:10:12;;;;;;;18.70;4.38;;;;;;;20.51;60.60;102166.19;4951569;28;20047;-78
2022/06/11 08:12:38;;;;;;;16.85;3.63;;;;;;;21.00;58.68;102177.53;4950418;28;20026;-78
2022/06/11 08:15:04;;;;;;;16.33;4.18;;;;;;;21.15;58.37;102176.03;4952040;28;20027;-79
2022/06/11 08:17:31;;;;;;;19.77;4.10;;;;;;;21.02;57.47;102180.91;4952702;28;20489;-79
2022/06/11 08:19:56;;;;;;;18.40;4.20;;;;;;;21.03;58.75;102182.56;4968325;28;20552;-79
2022/06/11 08:22:22;;;;;;;19.95;4.53;;;;;;;21.25;58.30;102178.69;4970278;28;20097;-79
2022/06/11 08:24:48;;;;;;;16.95;3.55;;;;;;;21.40;58.35;102185.22;4969939;28;20106;-79
2022/06/11 08:27:14;;;;;;;18.75;3.97;;;;;;;21.08;57.08;102180.28;4968391;28;20189;-79
2022/06/11 08:29:40;;;;;;;12.50;3.90;;;;;;;20.96;58.57;102178.81;4968575;28;20027;-79
2022/06/11 08:32:06;;;;;;;18.95;3.83;;;;;;;21.11;58.96;102174.63;4985060;28;20381;-79
2022/06/11 08:34:36;;;;;;;18.45;3.90;;;;;;;21.50;57.54;102187.81;4969290;28;20030;-79
2022/06/11 08:37:01;;;;;;;15.57;4.18;;;;;;;21.67;57.46;102180.78;4968993;28;20048;-79
2022/06/11 08:39:27;;;;;;;16.65;3.85;;;;;;;21.66;53.56;102179.94;4970189;28;20033;-79
2022/06/11 08:41:54;;;;;;;19.55;4.10;;;;;;;21.84;54.51;102179.94;4968714;28;20269;-79
2022/06/11 08:44:20;;;;;;;18.63;3.53;;;;;;;21.72;54.52;102182.00;4970259;28;20062;-77
2022/06/11 08:46:48;;;;;;;18.88;3.53;;;;;;;21.64;53.82;102187.31;4969400;28;20129;-79
2022/06/11 08:49:25;;;;;;;18.35;4.18;;;;;;;21.53;54.85;102191.03;4969540;28;20022;-79
2022/06/11 08:52:07;;;;;;;26.02;4.05;;;;;;;21.49;57.15;102189.66;4967783;28;20029;-77
2022/06/11 08:54:36;;;;;;;22.05;4.25;;;;;;;21.32;55.92;102195.00;4968275;28;20123;-77
2022/06/11 08:57:30;;;;;;;21.83;4.40;;;;;;;21.22;56.68;102185.16;4969370;28;20030;-78
2022/06/11 09:00:03;;;;;;;21.95;5.20;;;;;;;21.30;58.09;102186.28;4969897;28;20038;-78
2022/06/11 09:02:59;;;;;;;21.40;4.32;;;;;;;21.40;57.85;102189.72;4969078;28;20102;-78
2022/06/11 09:05:46;;;;;;;19.67;4.22;;;;;;;21.35;57.43;102192.00;4952578;28;20477;-78
2022/06/11 09:08:14;;;;;;;18.17;4.28;;;;;;;21.13;56.29;102182.53;4932330;29;20514;-77
2022/06/11 09:10:58;;;;;;;20.92;4.28;;;;;;;20.92;56.90;102185.47;4945905;29;20421;-77
2022/06/11 09:13:29;;;;;;;18.95;4.38;;;;;;;20.68;57.47;102193.16;4932425;29;20042;-81
2022/06/11 09:16:12;;;;;;;19.20;4.07;;;;;;;20.67;58.44;102188.78;4946812;29;20040;-80
2022/06/11 09:19:03;;;;;;;22.65;5.25;;;;;;;20.70;57.81;102188.50;4970783;28;20114;-80
2022/06/11 09:21:44;;;;;;;18.58;3.80;;;;;;;20.67;57.34;102184.28;4970588;28;20116;-80
2022/06/11 09:24:45;;;;;;;17.50;3.88;;;;;;;20.86;57.80;102192.25;4970420;28;20124;-77
2022/06/11 09:27:41;;;;;;;14.02;4.20;;;;;;;20.84;57.48;102188.03;4970783;28;20436;-77
2022/06/11 09:30:37;;;;;;;19.75;4.40;;;;;;;21.11;58.50;102179.16;4970272;28;20018;-77
2022/06/11 09:33:14;;;;;;;19.58;4.50;;;;;;;21.51;57.00;102181.47;4968979;28;20026;-78
2022/06/11 09:35:53;;;;;;;18.50;4.28;;;;;;;21.83;56.87;102181.78;4969870;28;20027;-78
2022/06/11 09:38:27;;;;;;;14.10;4.28;;;;;;;22.07;54.84;102183.00;4970811;28;20082;-77
2022/06/11 09:41:19;;;;;;;19.42;4.25;;;;;;;22.35;55.76;102181.84;4968839;28;20042;-77
2022/06/11 09:44:03;;;;;;;16.00;4.10;;;;;;;22.77;53.14;102183.75;4969436;28;20023;-78
2022/06/11 09:46:39;;;;;;;18.80;4.50;;;;;;;22.91;53.32;102180.53;4984669;28;20035;-77
2022/06/11 09:49:27;;;;;;;14.80;3.13;;;;;;;23.31;51.99;102173.59;4969399;28;20114;-78
2022/06/11 09:52:14;;;;;;;12.45;3.00;;;;;;;23.50;46.85;102178.66;4982982;28;20527;-79
2022/06/11 09:54:51;;;;;;;13.52;2.83;;;;;;;23.87;47.40;102172.00;4967462;28;20027;-79
2022/06/11 09:57:44;;;;;;;16.35;2.88;;;;;;;23.99;47.72;102173.34;4969473;28;20110;-79
2022/06/11 10:00:12;;;;;;;;;;;;;;;24.14;50.88;102182.41;4969140;28;20019;-79
2022/06/11 10:05:29;;;;;;;14.77;3.30;;;;;;;24.25;47.41;102178.53;4959775;28;20114;-79
2022/06/11 10:08:10;;;;;;;15.65;3.40;;;;;;;24.25;46.51;102168.59;4952077;29;20062;-79
2022/06/11 10:10:40;;;;;;;15.80;3.35;;;;;;;24.44;45.87;102171.97;4952994;28;20375;-79
2022/06/11 10:13:14;;;;;;;15.32;3.63;;;;;;;24.49;45.70;102180.38;4952531;28;20103;-79
2022/06/11 10:15:42;;;;;;;17.13;3.78;;;;;;;24.31;44.86;102178.72;4951462;28;20130;-79
2022/06/11 10:18:24;;;;;;;13.02;3.15;;;;;;;24.36;47.44;102183.56;4961419;28;20026;-79
2022/06/11 10:20:56;;;;;;;13.70;3.33;;;;;;;24.33;44.19;102175.84;4971358;28;20027;-79
2022/06/11 10:23:30;;;;;;;13.43;3.40;;;;;;;24.46;46.74;102186.09;4972453;28;20055;-80
2022/06/11 10:26:18;;;;;;;14.10;3.33;;;;;;;24.46;45.70;102188.78;4971139;28;20038;-78
2022/06/11 10:28:54;;;;;;;11.85;2.42;;;;;;;24.52;44.81;102185.41;4970581;28;20027;-78
2022/06/11 10:31:34;;;;;;;10.65;3.05;;;;;;;24.67;44.94;102183.66;4971194;28;20026;-79
2022/06/11 10:34:12;;;;;;;12.20;3.00;;;;;;;24.78;44.93;102180.59;4971826;28;20043;-79
2022/06/11 10:36:54;;;;;;;12.95;3.30;;;;;;;24.81;44.88;102185.63;4971804;28;20485;-79
2022/06/11 10:39:45;;;;;;;14.87;3.00;;;;;;;24.95;45.45;102187.59;4972277;28;20042;-79
2022/06/11 10:42:24;;;;;;;13.48;3.45;;;;;;;24.96;44.31;102180.38;4970338;28;20066;-78
2022/06/11 10:44:52;;;;;;;14.15;3.20;;;;;;;24.96;43.61;102185.75;4970998;28;20030;-79
2022/06/11 10:47:23;;;;;;;11.88;3.00;;;;;;;24.86;43.24;102182.44;4971892;28;20034;-79
2022/06/11 10:50:01;;;;;;;13.60;3.30;;;;;;;24.76;43.60;102179.94;4971067;28;20065;-79
2022/06/11 10:52:38;;;;;;;14.10;3.13;;;;;;;24.73;43.51;102182.97;4971950;28;20065;-80
2022/06/11 10:55:06;;;;;;;15.70;3.58;;;;;;;24.77;43.67;102176.22;4972468;28;20030;-80
2022/06/11 10:57:33;;;;;;;13.27;3.47;;;;;;;24.73;43.49;102180.28;4972723;28;20501;-79
2022/06/11 11:00:18;;;;;;;12.55;3.60;;;;;;;24.90;43.63;102181.06;4987577;28;20074;-79
2022/06/11 11:02:52;;;;;;;14.15;3.50;;;;;;;25.00;44.74;102168.25;4971484;28;20408;-79
2022/06/11 11:05:20;;;;;;;16.27;3.10;;;;;;;25.11;44.51;102175.94;4960236;28;20038;-79
2022/06/11 11:07:54;;;;;;;14.00;3.60;;;;;;;25.36;44.62;102173.94;4967788;28;20478;-79
2022/06/11 11:10:29;;;;;;;16.50;3.92;;;;;;;25.33;41.93;102168.06;4953163;28;20517;-78
2022/06/11 11:13:02;;;;;;;12.57;3.40;;;;;;;25.40;42.57;102163.66;4951586;29;20086;-80
2022/06/11 11:15:35;;;;;;;15.75;3.35;;;;;;;25.48;43.81;102167.13;4952755;28;20086;-79
2022/06/11 11:18:08;;;;;;;15.95;3.95;;;;;;;25.44;44.30;102162.28;4959657;28;20134;-79
2022/06/11 11:20:42;;;;;;;13.80;4.55;;;;;;;25.57;43.83;102160.63;4969693;28;20038;-79
2022/06/11 11:23:15;;;;;;;14.57;4.15;;;;;;;25.64;45.38;102159.94;4969498;28;20038;-79
2022/06/11 11:26:14;;;;;;;16.58;4.18;;;;;;;25.64;44.30;102159.94;4970732;28;20473;-79
2022/06/11 11:28:54;;;;;;;15.90;4.15;;;;;;;25.46;44.85;102162.94;4970774;28;20030;-79
2022/06/11 11:31:27;;;;;;;14.80;3.88;;;;;;;25.10;43.82;102154.56;4970673;28;20023;-79
2022/06/11 11:34:00;;;;;;;14.05;4.25;;;;;;;24.94;44.28;102159.00;4970441;28;20062;-79
2022/06/11 11:36:27;;;;;;;;;;;;;;;25.07;45.95;102153.06;4971625;28;20129;-79
2022/06/11 11:39:12;;;;;;;11.68;4.13;;;;;;;24.88;43.60;102154.31;4968461;28;19918;-79
2022/06/11 11:41:38;;;;;;;15.95;4.13;;;;;;;25.09;42.87;102144.81;4969308;28;20027;-79
2022/06/11 11:44:03;;;;;;;16.75;3.80;;;;;;;25.36;43.94;102152.38;4970585;28;20596;-79
2022/06/11 11:46:35;;;;;;;11.55;3.13;;;;;;;25.55;44.16;102154.59;4970691;28;20062;-79